createdAt,value
2018-03-18T00:01:12.307Z,8.4
2018-03-18T00:02:32.102Z,8.3
2018-03-18T00:03:51.955Z,8.3
2018-03-18T00:05:11.755Z,8.4
2018-03-18T00:06:31.552Z,8.3
2018-03-18T00:07:56.468Z,8.1
2018-03-18T00:09:16.263Z,8.1
2018-03-18T00:10:38.604Z,8
2018-03-18T00:12:03.518Z,7.9
2018-03-18T00:13:25.857Z,7.6
2018-03-18T00:14:45.702Z,7.7
2018-03-18T00:16:05.524Z,7.6
2018-03-18T00:17:27.875Z,7.8
2018-03-18T00:18:47.750Z,7.5
2018-03-18T00:20:10.086Z,8
2018-03-18T00:21:34.941Z,7.8
2018-03-18T00:22:57.305Z,8.2
2018-03-18T00:24:19.636Z,8.1
2018-03-18T00:25:41.954Z,7.8
2018-03-18T00:27:01.818Z,8.1
2018-03-18T00:28:21.677Z,8
2018-03-18T00:29:41.521Z,8
2018-03-18T00:31:01.315Z,8
2018-03-18T00:32:31.276Z,7.8
2018-03-18T00:33:56.166Z,7.7
2018-03-18T00:35:15.971Z,8.1
2018-03-18T00:36:35.787Z,8.1
2018-03-18T00:37:58.121Z,7.9
2018-03-18T00:39:17.943Z,7.9
2018-03-18T00:40:40.320Z,7.9
2018-03-18T00:42:05.183Z,7.9
2018-03-18T00:43:27.561Z,8.2
2018-03-18T00:44:47.431Z,8.1
2018-03-18T00:46:07.310Z,8.1
2018-03-18T00:47:29.635Z,8
2018-03-18T00:48:49.437Z,8.1
2018-03-18T00:50:16.828Z,8.2
2018-03-18T00:51:41.732Z,8.1
2018-03-18T00:53:01.539Z,7.7
2018-03-18T00:54:23.894Z,7.5
2018-03-18T00:55:43.684Z,8.1
2018-03-18T00:57:03.489Z,8.3
2018-03-18T00:58:25.853Z,7.6
2018-03-18T00:59:50.722Z,7.6
2018-03-18T01:01:10.528Z,7.7
2018-03-18T01:02:32.917Z,8
2018-03-18T01:03:55.246Z,8.3
2018-03-18T01:05:20.141Z,8.3
2018-03-18T01:06:40.005Z,8.2
2018-03-18T01:08:02.346Z,8.1
2018-03-18T01:09:24.688Z,7.7
2018-03-18T01:10:49.559Z,7.5
2018-03-18T01:12:11.911Z,7.7
2018-03-18T01:13:39.286Z,7.4
2018-03-18T01:15:01.614Z,7.7
2018-03-18T01:16:36.651Z,7.7
2018-03-18T01:18:01.502Z,7.6
2018-03-18T01:19:28.938Z,8
2018-03-18T01:20:48.730Z,7.9
2018-03-18T01:22:11.102Z,7.3
2018-03-18T01:23:30.897Z,6.9
2018-03-18T01:24:53.227Z,7.3
2018-03-18T01:26:15.596Z,7.3
2018-03-18T01:27:35.398Z,6.9
2018-03-18T01:28:55.188Z,7.4
2018-03-18T01:30:15.010Z,7.4
2018-03-18T01:31:34.832Z,8
2018-03-18T01:33:02.249Z,7.8
2018-03-18T01:34:22.149Z,7.9
2018-03-18T01:35:44.477Z,7.8
2018-03-18T01:37:04.268Z,7.6
2018-03-18T01:38:24.091Z,8.2
2018-03-18T01:39:43.889Z,8.1
2018-03-18T01:41:08.739Z,7.8
2018-03-18T01:42:31.118Z,7.9
2018-03-18T01:43:53.447Z,7.8
2018-03-18T01:45:18.360Z,7.5
2018-03-18T01:46:40.720Z,7.5
2018-03-18T01:48:00.517Z,7.1
2018-03-18T01:49:20.312Z,7.6
2018-03-18T01:50:42.692Z,7.6
2018-03-18T01:52:07.579Z,7.8
2018-03-18T01:53:27.434Z,7.7
2018-03-18T01:54:47.309Z,7.7
2018-03-18T01:56:07.142Z,7.8
2018-03-18T01:57:32.020Z,6.2
2018-03-18T01:58:51.845Z,6.7
2018-03-18T02:00:11.694Z,6.8
2018-03-18T02:01:31.494Z,6.2
2018-03-18T02:02:53.874Z,7.1
2018-03-18T02:04:13.703Z,7.2
2018-03-18T02:05:33.554Z,7.2
2018-03-18T02:06:53.374Z,7.1
2018-03-18T02:08:13.171Z,7.5
2018-03-18T02:09:32.981Z,7.7
2018-03-18T02:10:57.866Z,7.8
2018-03-18T02:12:17.673Z,7.7
2018-03-18T02:13:45.100Z,7.7
2018-03-18T02:15:04.910Z,7.7
2018-03-18T02:17:00.127Z,7.4
2018-03-18T02:18:19.922Z,7.3
2018-03-18T02:19:42.277Z,6.9
2018-03-18T02:21:12.264Z,7
2018-03-18T02:22:37.144Z,7.1
2018-03-18T02:24:02.023Z,7
2018-03-18T02:25:26.939Z,7.1
2018-03-18T02:26:46.760Z,7.1
2018-03-18T02:28:09.111Z,6.9
2018-03-18T02:29:31.431Z,6.9
2018-03-18T02:30:56.368Z,7
2018-03-18T02:32:16.216Z,6.9
2018-03-18T02:33:38.534Z,7.2
2018-03-18T02:35:00.913Z,6.9
2018-03-18T02:36:20.763Z,6.9
2018-03-18T02:37:43.135Z,6.9
2018-03-18T02:39:02.932Z,7.1
2018-03-18T02:40:35.392Z,7.2
2018-03-18T02:41:55.200Z,7.1
2018-03-18T02:43:14.992Z,7
2018-03-18T02:44:34.791Z,6.8
2018-03-18T02:46:02.223Z,6.8
2018-03-18T02:47:22.052Z,6.9
2018-03-18T02:48:49.440Z,6.6
2018-03-18T02:50:16.859Z,6.7
2018-03-18T02:51:36.693Z,6.6
2018-03-18T02:53:06.717Z,6.8
2018-03-18T02:54:29.044Z,6.8
2018-03-18T02:55:51.363Z,7
2018-03-18T02:57:13.754Z,6.9
2018-03-18T02:58:33.604Z,6.9
2018-03-18T02:59:53.443Z,6.9
2018-03-18T03:01:28.412Z,6.8
2018-03-18T03:02:48.249Z,6.8
2018-03-18T03:04:08.098Z,6.8
2018-03-18T03:05:30.428Z,6.8
2018-03-18T03:06:52.765Z,6
2018-03-18T03:08:12.586Z,5.4
2018-03-18T03:09:34.923Z,6
2018-03-18T03:10:54.774Z,6.8
2018-03-18T03:12:19.623Z,6.4
2018-03-18T03:13:39.418Z,6.4
2018-03-18T03:14:59.224Z,6.4
2018-03-18T03:16:24.099Z,6.3
2018-03-18T03:17:49.013Z,6.4
2018-03-18T03:19:08.805Z,6.2
2018-03-18T03:20:38.723Z,6.1
2018-03-18T03:21:58.517Z,6.3
2018-03-18T03:23:20.838Z,6.2
2018-03-18T03:24:40.638Z,6.2
2018-03-18T03:26:05.555Z,6.3
2018-03-18T03:27:25.359Z,6.3
2018-03-18T03:28:47.695Z,6.2
2018-03-18T03:30:15.078Z,6.5
2018-03-18T03:31:37.408Z,6.3
2018-03-18T03:33:04.856Z,6.4
2018-03-18T03:34:27.208Z,6.4
2018-03-18T03:35:47.033Z,6.4
2018-03-18T03:37:11.961Z,6.4
2018-03-18T03:38:31.784Z,6.3
2018-03-18T03:39:51.644Z,6.3
2018-03-18T03:41:11.486Z,6.6
2018-03-18T03:42:31.288Z,6.5
2018-03-18T03:43:51.130Z,6.5
2018-03-18T03:45:11.001Z,6.3
2018-03-18T03:46:30.804Z,6.4
2018-03-18T03:47:53.122Z,6.6
2018-03-18T03:49:28.127Z,6.5
2018-03-18T03:50:50.457Z,6.2
2018-03-18T03:52:20.441Z,6.5
2018-03-18T03:53:42.761Z,6.4
2018-03-18T03:55:12.730Z,6.5
2018-03-18T03:56:32.527Z,6.6
2018-03-18T03:57:52.356Z,6.5
2018-03-18T03:59:14.703Z,6.5
2018-03-18T04:00:37.062Z,6.4
2018-03-18T04:02:02.001Z,6.5
2018-03-18T04:03:21.864Z,6.6
2018-03-18T04:04:44.211Z,6.8
2018-03-18T04:06:04.006Z,6.7
2018-03-18T04:07:23.808Z,6.9
2018-03-18T04:08:51.233Z,6.7
2018-03-18T04:10:13.604Z,6.8
2018-03-18T04:11:38.465Z,6.8
2018-03-18T04:13:08.416Z,6.9
2018-03-18T04:14:40.879Z,6.7
2018-03-18T04:16:00.670Z,6.8
2018-03-18T04:17:20.461Z,6.8
2018-03-18T04:18:42.788Z,6.9
2018-03-18T04:20:02.632Z,6.8
2018-03-18T04:21:24.952Z,6.8
2018-03-18T04:22:47.314Z,6.7
2018-03-18T04:24:19.773Z,6.9
2018-03-18T04:25:39.589Z,6.9
2018-03-18T04:26:59.428Z,7
2018-03-18T04:28:19.236Z,7.1
2018-03-18T04:29:41.689Z,7.1
2018-03-18T04:31:16.711Z,7.1
2018-03-18T04:32:39.071Z,7.1
2018-03-18T04:34:06.486Z,7.1
2018-03-18T04:35:26.354Z,7.2
2018-03-18T04:36:51.232Z,7.2
2018-03-18T04:38:11.041Z,7.2
2018-03-18T04:39:30.840Z,6.8
2018-03-18T04:40:53.222Z,6.8
2018-03-18T04:42:13.073Z,6.8
2018-03-18T04:43:35.431Z,7.3
2018-03-18T04:45:00.278Z,6.6
2018-03-18T04:46:20.080Z,6.9
2018-03-18T04:47:39.878Z,7.2
2018-03-18T04:49:02.251Z,7.2
2018-03-18T04:50:24.623Z,7
2018-03-18T04:51:46.969Z,7.1
2018-03-18T04:53:06.787Z,7.3
2018-03-18T04:54:29.151Z,7.3
2018-03-18T04:55:56.557Z,7.2
2018-03-18T04:57:16.383Z,7.2
2018-03-18T04:58:36.232Z,7.1
2018-03-18T05:00:01.138Z,7.2
2018-03-18T05:01:23.513Z,7.2
2018-03-18T05:02:43.316Z,7.2
2018-03-18T05:04:10.696Z,7.2
2018-03-18T05:05:33.066Z,7.2
2018-03-18T05:06:52.901Z,7.3
2018-03-18T05:08:17.815Z,7.3
2018-03-18T05:09:37.666Z,7.3
2018-03-18T05:11:10.107Z,7.4
2018-03-18T05:12:29.905Z,7.2
2018-03-18T05:13:49.697Z,7.3
2018-03-18T05:15:09.526Z,7.3
2018-03-18T05:16:34.421Z,7.2
2018-03-18T05:17:59.305Z,7.2
2018-03-18T05:19:24.173Z,7.1
2018-03-18T05:20:51.621Z,6.9
2018-03-18T05:22:11.473Z,6.8
2018-03-18T05:23:33.797Z,7
2018-03-18T05:24:53.613Z,6.9
2018-03-18T05:26:15.951Z,6.7
2018-03-18T05:27:38.270Z,6.6
2018-03-18T05:29:05.695Z,6.5
2018-03-18T05:30:28.102Z,6.7
2018-03-18T05:32:00.550Z,6.8
2018-03-18T05:33:20.386Z,7
2018-03-18T05:34:40.174Z,7
2018-03-18T05:36:02.494Z,6.9
2018-03-18T05:37:29.905Z,6.9
2018-03-18T05:38:49.711Z,6.7
2018-03-18T05:40:24.699Z,6.6
2018-03-18T05:41:49.586Z,6.5
2018-03-18T05:43:11.948Z,6.8
2018-03-18T05:44:31.791Z,6.6
2018-03-18T05:46:24.521Z,6.6
2018-03-18T05:47:54.463Z,6.6
2018-03-18T05:49:14.248Z,6
2018-03-18T05:50:34.049Z,6.3
2018-03-18T05:51:53.897Z,6.4
2018-03-18T05:53:13.695Z,6.6
2018-03-18T05:54:38.561Z,6.7
2018-03-18T05:56:03.465Z,6.8
2018-03-18T05:57:23.308Z,6.6
2018-03-18T05:58:48.214Z,6.8
2018-03-18T06:00:08.012Z,6.8
2018-03-18T06:01:37.984Z,6.8
2018-03-18T06:03:00.308Z,6.5
2018-03-18T06:04:37.827Z,6.5
2018-03-18T06:05:57.628Z,6.6
2018-03-18T06:07:22.519Z,6.6
2018-03-18T06:08:44.864Z,6.4
2018-03-18T06:10:04.659Z,6.8
2018-03-18T06:11:24.479Z,6.6
2018-03-18T06:12:44.321Z,6.8
2018-03-18T06:14:09.186Z,6.9
2018-03-18T06:15:34.072Z,6.7
2018-03-18T06:16:53.871Z,6.5
2018-03-18T06:18:18.735Z,6.8
2018-03-18T06:19:41.101Z,6.8
2018-03-18T06:21:08.521Z,6.5
2018-03-18T06:22:30.866Z,6.6
2018-03-18T06:23:53.244Z,6.5
2018-03-18T06:25:13.042Z,6.4
2018-03-18T06:26:32.840Z,6.4
2018-03-18T06:28:02.772Z,6.3
2018-03-18T06:29:25.120Z,6.5
2018-03-18T06:30:44.921Z,6.5
2018-03-18T06:32:07.259Z,6.5
2018-03-18T06:33:37.181Z,6.6
2018-03-18T06:34:57.003Z,6.5
2018-03-18T06:36:24.408Z,6.8
2018-03-18T06:37:44.232Z,7.2
2018-03-18T06:39:14.166Z,7.3
2018-03-18T06:40:33.988Z,6.9
2018-03-18T06:41:56.357Z,6.7
2018-03-18T06:43:16.224Z,6.9
2018-03-18T06:44:51.240Z,6.9
2018-03-18T06:46:18.646Z,6.9
2018-03-18T06:47:38.432Z,6.9
2018-03-18T06:49:03.297Z,6.6
2018-03-18T06:50:28.149Z,6.4
2018-03-18T06:51:47.991Z,7.7
2018-03-18T06:53:15.380Z,8.5
2018-03-18T06:54:37.772Z,8.9
2018-03-18T06:56:00.098Z,8.6
2018-03-18T06:57:19.924Z,8.4
2018-03-18T06:58:44.773Z,7.9
2018-03-18T07:00:07.105Z,7.3
2018-03-18T07:01:26.899Z,8
2018-03-18T07:02:49.220Z,9.5
2018-03-18T07:04:16.651Z,9.7
2018-03-18T07:05:41.556Z,9.7
2018-03-18T07:07:11.491Z,10.2
2018-03-18T07:08:31.381Z,10.5
2018-03-18T07:09:56.274Z,10.8
2018-03-18T07:11:21.194Z,11
2018-03-18T07:12:41.082Z,11.4
2018-03-18T07:14:00.919Z,11.3
2018-03-18T07:15:20.793Z,11.5
2018-03-18T07:16:40.677Z,11.6
2018-03-18T07:18:08.101Z,12.3
2018-03-18T07:19:27.912Z,12.4
2018-03-18T07:20:50.318Z,12.5
2018-03-18T07:22:12.715Z,12.7
2018-03-18T07:23:37.597Z,12.5
2018-03-18T07:24:57.461Z,12.5
2018-03-18T07:26:17.324Z,12.5
2018-03-18T07:27:42.206Z,12.5
2018-03-18T07:29:02.055Z,12.2
2018-03-18T07:30:21.868Z,11.9
2018-03-18T07:31:41.683Z,11.5
2018-03-18T07:33:01.536Z,11.9
2018-03-18T07:34:21.397Z,11.7
2018-03-18T07:35:48.827Z,11.5
2018-03-18T07:37:11.184Z,11.3
2018-03-18T07:38:36.192Z,11.4
2018-03-18T07:39:56.091Z,11.2
2018-03-18T07:41:18.445Z,11.5
2018-03-18T07:42:38.276Z,11.3
2018-03-18T07:44:03.147Z,11.3
2018-03-18T07:45:25.573Z,10.8
2018-03-18T07:46:52.998Z,10.8
2018-03-18T07:48:20.433Z,10.7
2018-03-18T07:49:40.269Z,10.6
2018-03-18T07:51:07.752Z,10.1
2018-03-18T07:52:32.657Z,9.8
2018-03-18T07:53:52.465Z,9.6
2018-03-18T07:55:12.264Z,9.6
2018-03-18T07:56:32.106Z,9.3
2018-03-18T07:57:54.474Z,9.3
2018-03-18T07:59:16.796Z,9.9
2018-03-18T08:00:41.713Z,9.7
2018-03-18T08:02:01.557Z,9.9
2018-03-18T08:03:21.441Z,9.9
2018-03-18T08:04:41.233Z,9.9
2018-03-18T08:06:08.620Z,9.8
2018-03-18T08:07:33.509Z,9.8
2018-03-18T08:08:53.314Z,9.6
2018-03-18T08:10:20.807Z,10
2018-03-18T08:11:40.648Z,10.1
2018-03-18T08:13:00.489Z,10.2
2018-03-18T08:14:20.373Z,10.5
2018-03-18T08:15:40.212Z,10.6
2018-03-18T08:17:00.020Z,10.5
2018-03-18T08:18:27.494Z,10.8
2018-03-18T08:19:54.925Z,11
2018-03-18T08:21:17.332Z,10.5
2018-03-18T08:22:37.147Z,10.7
2018-03-18T08:23:59.543Z,10.7
2018-03-18T08:25:26.953Z,10.9
2018-03-18T08:26:51.837Z,11.1
2018-03-18T08:28:21.765Z,11.1
2018-03-18T08:29:44.110Z,11.2
2018-03-18T08:31:03.922Z,11.2
2018-03-18T08:32:26.308Z,11.3
2018-03-18T08:33:56.278Z,11.3
2018-03-18T08:35:16.088Z,11
2018-03-18T08:36:35.948Z,10.9
2018-03-18T08:37:58.348Z,11.1
2018-03-18T08:39:33.330Z,10.7
2018-03-18T08:41:00.786Z,11
2018-03-18T08:42:23.149Z,10.8
2018-03-18T08:43:45.546Z,11.5
2018-03-18T08:45:07.910Z,11.6
2018-03-18T08:46:30.306Z,11.9
2018-03-18T08:47:55.212Z,11.8
2018-03-18T08:49:15.055Z,11.8
2018-03-18T08:50:37.417Z,11.8
2018-03-18T08:51:59.825Z,10.9
2018-03-18T08:53:24.753Z,11.2
2018-03-18T08:54:44.601Z,12.3
2018-03-18T08:56:06.988Z,12.5
2018-03-18T08:57:34.397Z,12
2018-03-18T08:58:54.208Z,11.6
2018-03-18T09:00:26.661Z,11.1
2018-03-18T09:01:46.520Z,10.7
2018-03-18T09:03:06.353Z,11.8
2018-03-18T09:04:26.226Z,12.1
2018-03-18T09:05:58.756Z,11.5
2018-03-18T09:07:28.694Z,12.1
2018-03-18T09:08:53.566Z,12.2
2018-03-18T09:10:15.919Z,11.8
2018-03-18T09:11:38.257Z,11.6
2018-03-18T09:12:58.069Z,11.7
2018-03-18T09:14:17.882Z,11.8
2018-03-18T09:15:45.316Z,11.8
2018-03-18T09:17:05.199Z,11.7
2018-03-18T09:18:25.095Z,10.2
2018-03-18T09:19:44.972Z,10.9
2018-03-18T09:21:04.788Z,11.1
2018-03-18T09:22:42.336Z,10.7
2018-03-18T09:24:09.722Z,9.8
2018-03-18T09:25:34.656Z,9.4
2018-03-18T09:27:04.618Z,9.7
2018-03-18T09:28:26.994Z,11.2
2018-03-18T09:29:46.808Z,10.8
2018-03-18T09:31:06.624Z,10.6
2018-03-18T09:32:31.554Z,11.5
2018-03-18T09:34:01.529Z,11.5
2018-03-18T09:35:21.341Z,10.7
2018-03-18T09:36:43.711Z,11.6
2018-03-18T09:38:03.596Z,11.5
2018-03-18T09:39:23.408Z,11.3
2018-03-18T09:40:43.224Z,10.4
2018-03-18T09:42:08.097Z,10.5
2018-03-18T09:43:30.473Z,10.4
2018-03-18T09:45:05.547Z,10.4
2018-03-18T09:46:25.392Z,10.4
2018-03-18T09:47:45.240Z,10.3
2018-03-18T09:49:10.184Z,10.3
2018-03-18T09:50:30.060Z,9.9
2018-03-18T09:51:49.909Z,10.4
2018-03-18T09:53:17.300Z,10.6
2018-03-18T09:54:39.634Z,10.6
2018-03-18T09:56:02.007Z,11.1
2018-03-18T09:57:21.818Z,11.3
2018-03-18T09:58:44.198Z,11.5
2018-03-18T10:00:06.547Z,11.5
2018-03-18T10:01:26.416Z,11
2018-03-18T10:02:46.253Z,11.3
2018-03-18T10:04:06.088Z,11.8
2018-03-18T10:05:25.948Z,11.3
2018-03-18T10:06:45.761Z,11.1
2018-03-18T10:08:05.597Z,10.3
2018-03-18T10:09:25.448Z,10.8
2018-03-18T10:10:45.294Z,11.5
2018-03-18T10:12:05.133Z,10.8
2018-03-18T10:13:24.991Z,10.1
2018-03-18T10:14:47.336Z,10.5
2018-03-18T10:16:09.754Z,10.6
2018-03-18T10:17:29.573Z,11.1
2018-03-18T10:18:57.010Z,10.4
2018-03-18T10:20:19.458Z,10.6
2018-03-18T10:21:39.394Z,10.8
2018-03-18T10:23:01.733Z,11
2018-03-18T10:24:24.070Z,11.2
2018-03-18T10:25:43.873Z,11.5
2018-03-18T10:27:03.681Z,11.2
2018-03-18T10:28:23.486Z,11.1
2018-03-18T10:29:43.352Z,11.5
2018-03-18T10:31:05.684Z,11.7
2018-03-18T10:32:25.536Z,12
2018-03-18T10:33:50.459Z,12.1
2018-03-18T10:35:10.301Z,12
2018-03-18T10:36:30.180Z,12.1
2018-03-18T10:37:52.547Z,12.1
2018-03-18T10:39:17.430Z,11.9
2018-03-18T10:40:49.912Z,12
2018-03-18T10:42:12.257Z,11.9
2018-03-18T10:43:32.081Z,12
2018-03-18T10:44:51.919Z,11.9
2018-03-18T10:46:14.312Z,11.5
2018-03-18T10:47:41.759Z,12.3
2018-03-18T10:49:01.615Z,12.3
2018-03-18T10:50:31.600Z,11.3
2018-03-18T10:51:53.986Z,11.9
2018-03-18T10:53:13.842Z,12.6
2018-03-18T10:54:33.704Z,10
2018-03-18T10:55:56.059Z,12.2
2018-03-18T10:57:20.934Z,11.8
2018-03-18T10:58:43.296Z,11.7
2018-03-18T11:00:03.152Z,11.6
2018-03-18T11:01:22.977Z,11.3
2018-03-18T11:02:42.809Z,11.3
2018-03-18T11:04:07.682Z,9.3
2018-03-18T11:05:30.099Z,11.2
2018-03-18T11:06:49.982Z,11.8
2018-03-18T11:08:09.816Z,12.1
2018-03-18T11:09:32.175Z,11.9
2018-03-18T11:10:51.983Z,12.4
2018-03-18T11:12:11.845Z,12.4
2018-03-18T11:13:31.662Z,12.1
2018-03-18T11:14:51.473Z,11.9
2018-03-18T11:16:11.303Z,12.4
2018-03-18T11:17:38.717Z,12.3
2018-03-18T11:18:58.526Z,12.1
2018-03-18T11:20:18.342Z,12.1
2018-03-18T11:21:38.152Z,12.1
2018-03-18T11:22:57.964Z,11.9
2018-03-18T11:24:27.955Z,11.8
2018-03-18T11:25:50.318Z,11.5
2018-03-18T11:27:15.288Z,11.5
2018-03-18T11:28:50.313Z,11.4
2018-03-18T11:30:10.185Z,11.2
2018-03-18T11:31:35.094Z,11
2018-03-18T11:32:54.979Z,10.9
2018-03-18T11:34:17.367Z,11.1
2018-03-18T11:35:37.193Z,11.3
2018-03-18T11:36:57.001Z,11.3
2018-03-18T11:38:21.900Z,10
2018-03-18T11:39:44.272Z,10.5
2018-03-18T11:41:06.617Z,10.2
2018-03-18T11:42:31.480Z,9.8
2018-03-18T11:43:51.327Z,10
2018-03-18T11:45:11.139Z,10.1
2018-03-18T11:46:30.958Z,10.2
2018-03-18T11:47:58.378Z,10.1
2018-03-18T11:49:18.189Z,10
2018-03-18T11:50:38.032Z,10
2018-03-18T11:52:00.364Z,9.8
2018-03-18T11:53:22.764Z,9.7
2018-03-18T11:54:45.125Z,9.8
2018-03-18T11:56:05.033Z,9.9
2018-03-18T11:57:35.027Z,9.9
2018-03-18T11:59:02.465Z,10.3
2018-03-18T12:00:22.298Z,10.4
2018-03-18T12:01:52.236Z,10.7
2018-03-18T12:03:12.051Z,10.9
2018-03-18T12:04:31.865Z,10.9
2018-03-18T12:05:54.295Z,11.1
2018-03-18T12:07:16.660Z,11.7
2018-03-18T12:08:36.486Z,11.9
2018-03-18T12:10:06.450Z,12.2
2018-03-18T12:11:28.823Z,12.4
2018-03-18T12:12:51.170Z,12.5
2018-03-18T12:14:11.033Z,12.6
2018-03-18T12:15:30.848Z,12.8
2018-03-18T12:16:53.208Z,12.8
2018-03-18T12:18:13.037Z,13.2
2018-03-18T12:19:32.874Z,13.1
2018-03-18T12:20:52.690Z,13
2018-03-18T12:22:17.588Z,13.1
2018-03-18T12:23:37.397Z,13.1
2018-03-18T12:24:57.215Z,12.9
2018-03-18T12:26:17.024Z,13
2018-03-18T12:27:36.836Z,13.2
2018-03-18T12:29:11.835Z,13.2
2018-03-18T12:30:31.649Z,13
2018-03-18T12:31:51.502Z,13.1
2018-03-18T12:33:11.319Z,13.3
2018-03-18T12:34:31.138Z,13.6
2018-03-18T12:36:06.154Z,13.4
2018-03-18T12:37:28.537Z,13.5
2018-03-18T12:38:48.345Z,13.8
2018-03-18T12:40:08.162Z,14
2018-03-18T12:41:33.019Z,13.8
2018-03-18T12:42:57.941Z,13.6
2018-03-18T12:44:17.771Z,13.5
2018-03-18T12:45:37.635Z,13.9
2018-03-18T12:46:59.992Z,13.8
2018-03-18T12:48:19.873Z,13.5
2018-03-18T12:49:39.756Z,13.1
2018-03-18T12:50:59.601Z,12.6
2018-03-18T12:52:21.932Z,12.9
2018-03-18T12:53:46.812Z,12.8
2018-03-18T12:55:11.725Z,13.3
2018-03-18T12:56:34.099Z,13
2018-03-18T12:57:53.969Z,12.9
2018-03-18T12:59:16.320Z,12.5
2018-03-18T13:00:36.181Z,12.3
2018-03-18T13:02:01.050Z,12
2018-03-18T13:03:20.861Z,11.7
2018-03-18T13:04:43.200Z,11
2018-03-18T13:06:03.072Z,12.1
2018-03-18T13:07:22.983Z,11.8
2018-03-18T13:08:42.825Z,11.7
2018-03-18T13:10:02.641Z,11.8
2018-03-18T13:11:22.513Z,11.7
2018-03-18T13:12:44.869Z,11.6
2018-03-18T13:14:04.706Z,11.4
2018-03-18T13:15:32.113Z,11.6
2018-03-18T13:16:51.980Z,11.7
2018-03-18T13:18:19.412Z,12.4
2018-03-18T13:19:39.303Z,12.2
2018-03-18T13:21:01.640Z,12.1
2018-03-18T13:22:24.063Z,11.9
2018-03-18T13:23:46.425Z,11.9
2018-03-18T13:25:06.284Z,11.7
2018-03-18T13:26:26.113Z,11.6
2018-03-18T13:27:45.924Z,10.6
2018-03-18T13:29:10.793Z,11.1
2018-03-18T13:30:30.594Z,10.9
2018-03-18T13:31:52.929Z,10.6
2018-03-18T13:33:12.725Z,9.6
2018-03-18T13:34:35.056Z,9.9
2018-03-18T13:35:54.856Z,9.7
2018-03-18T13:37:14.754Z,10.8
2018-03-18T13:38:37.097Z,11.7
2018-03-18T13:39:56.915Z,11.6
2018-03-18T13:41:16.722Z,11
2018-03-18T13:42:39.149Z,11.4
2018-03-18T13:43:58.983Z,11.3
2018-03-18T13:45:23.925Z,11.1
2018-03-18T13:46:46.258Z,10.5
2018-03-18T13:48:08.633Z,11.2
2018-03-18T13:49:33.564Z,10.7
2018-03-18T13:51:03.532Z,11.7
2018-03-18T13:52:23.387Z,11.5
2018-03-18T13:53:48.273Z,11.7
2018-03-18T13:55:10.615Z,11.9
2018-03-18T13:56:30.433Z,11.8
2018-03-18T13:57:55.344Z,12.1
2018-03-18T13:59:17.681Z,12.4
2018-03-18T14:00:37.493Z,12.2
2018-03-18T14:01:59.846Z,12.2
2018-03-18T14:03:19.675Z,12.4
2018-03-18T14:04:39.512Z,12.2
2018-03-18T14:05:59.397Z,12.5
2018-03-18T14:07:29.357Z,12.5
2018-03-18T14:08:51.738Z,12.6
2018-03-18T14:10:11.554Z,12.5
2018-03-18T14:11:31.403Z,12.8
2018-03-18T14:12:51.238Z,13.5
2018-03-18T14:14:11.054Z,13.5
2018-03-18T14:15:41.009Z,13.7
2018-03-18T14:17:00.825Z,14.1
2018-03-18T14:18:20.637Z,13.9
2018-03-18T14:19:42.989Z,14
2018-03-18T14:21:05.355Z,14
2018-03-18T14:22:25.170Z,14
2018-03-18T14:23:47.555Z,14.2
2018-03-18T14:25:09.913Z,14.6
2018-03-18T14:26:32.307Z,14.6
2018-03-18T14:27:57.219Z,14.7
2018-03-18T14:29:19.575Z,14.5
2018-03-18T14:30:39.413Z,14.4
2018-03-18T14:32:04.336Z,14.4
2018-03-18T14:33:26.693Z,14.2
2018-03-18T14:34:56.640Z,14.2
2018-03-18T14:36:24.134Z,14.1
2018-03-18T14:37:51.541Z,14
2018-03-18T14:39:16.443Z,13.8
2018-03-18T14:40:41.348Z,13.7
2018-03-18T14:42:01.154Z,13.8
2018-03-18T14:43:20.997Z,13.9
2018-03-18T14:44:40.812Z,14.1
2018-03-18T14:46:00.641Z,14
2018-03-18T14:47:20.450Z,14
2018-03-18T14:48:42.818Z,14
2018-03-18T14:50:02.631Z,13.8
2018-03-18T14:51:24.984Z,14.3
2018-03-18T14:52:49.857Z,14.1
2018-03-18T14:54:14.782Z,13.8
2018-03-18T14:55:34.596Z,13.9
2018-03-18T14:56:54.483Z,13.8
2018-03-18T14:58:16.848Z,13.9
2018-03-18T14:59:36.707Z,13.8
2018-03-18T15:01:01.585Z,13.6
2018-03-18T15:02:23.963Z,13.6
2018-03-18T15:03:43.796Z,13.4
2018-03-18T15:05:16.315Z,13.2
2018-03-18T15:06:41.242Z,13.1
2018-03-18T15:08:01.053Z,11.5
2018-03-18T15:09:20.864Z,13.2
2018-03-18T15:10:45.747Z,13.3
2018-03-18T15:12:05.554Z,13.1
2018-03-18T15:13:25.385Z,12.5
2018-03-18T15:14:45.251Z,12.6
2018-03-18T15:16:05.078Z,13.2
2018-03-18T15:17:29.946Z,13
2018-03-18T15:18:57.407Z,12.8
2018-03-18T15:20:17.248Z,12.7
2018-03-18T15:21:37.107Z,12.9
2018-03-18T15:22:59.448Z,12.7
2018-03-18T15:24:19.325Z,12.6
2018-03-18T15:25:49.307Z,12.6
2018-03-18T15:27:09.143Z,12.5
2018-03-18T15:28:36.603Z,12.5
2018-03-18T15:29:56.421Z,12.4
2018-03-18T15:31:16.277Z,12.3
2018-03-18T15:32:41.154Z,12.3
2018-03-18T15:34:00.996Z,12.2
2018-03-18T15:35:20.811Z,12
2018-03-18T15:36:40.625Z,12
2018-03-18T15:38:05.490Z,11.7
2018-03-18T15:39:25.302Z,11.3
2018-03-18T15:41:00.345Z,11.2
2018-03-18T15:42:20.161Z,11.1
2018-03-18T15:43:40.009Z,11.2
2018-03-18T15:45:04.954Z,11.2
2018-03-18T15:46:29.817Z,11.2
2018-03-18T15:47:54.706Z,11.1
2018-03-18T15:49:19.645Z,10.9
2018-03-18T15:50:44.591Z,10.9
2018-03-18T15:52:04.458Z,10.9
2018-03-18T15:53:29.376Z,10.8
2018-03-18T15:54:56.790Z,10.8
2018-03-18T15:56:16.660Z,10.6
2018-03-18T15:57:36.469Z,10.6
2018-03-18T15:59:01.359Z,10.4
2018-03-18T16:00:23.738Z,10.3
2018-03-18T16:01:48.670Z,10.4
2018-03-18T16:03:08.507Z,10.5
2018-03-18T16:04:28.411Z,10.7
2018-03-18T16:05:50.764Z,10.9
2018-03-18T16:07:13.099Z,10.9
2018-03-18T16:08:32.974Z,11.3
2018-03-18T16:09:57.853Z,11.3
2018-03-18T16:11:17.662Z,11.5
2018-03-18T16:12:42.533Z,12.4
2018-03-18T16:14:07.413Z,12.5
2018-03-18T16:15:29.767Z,12.5
2018-03-18T16:16:49.585Z,12.7
2018-03-18T16:18:09.398Z,12.9
2018-03-18T16:19:34.266Z,12.9
2018-03-18T16:20:54.119Z,13
2018-03-18T16:22:13.971Z,13.4
2018-03-18T16:23:38.914Z,13.4
2018-03-18T16:25:01.299Z,13.6
2018-03-18T16:26:31.257Z,13.7
2018-03-18T16:27:56.167Z,13.8
2018-03-18T16:29:23.656Z,13.8
2018-03-18T16:30:43.489Z,13.9
2018-03-18T16:32:03.336Z,13.5
2018-03-18T16:33:23.218Z,13.6
2018-03-18T16:34:45.566Z,13.9
2018-03-18T16:36:05.386Z,14
2018-03-18T16:37:32.811Z,14.2
2018-03-18T16:39:05.289Z,14.3
2018-03-18T16:40:25.102Z,14.3
2018-03-18T16:41:44.912Z,14.2
2018-03-18T16:43:04.725Z,14.5
2018-03-18T16:44:24.541Z,14.4
2018-03-18T16:45:46.885Z,13.9
2018-03-18T16:47:06.709Z,14
2018-03-18T16:48:26.578Z,14.1
2018-03-18T16:49:46.441Z,14.1
2018-03-18T16:51:06.262Z,14
2018-03-18T16:52:26.070Z,13.7
2018-03-18T16:53:48.447Z,13.9
2018-03-18T16:55:10.793Z,13.7
2018-03-18T16:56:30.654Z,13.6
2018-03-18T16:57:55.566Z,13.7
2018-03-18T16:59:20.483Z,14
2018-03-18T17:00:45.380Z,13.8
2018-03-18T17:02:05.188Z,13.6
2018-03-18T17:03:30.058Z,13.5
2018-03-18T17:05:00.035Z,13.6
2018-03-18T17:06:19.846Z,13.7
2018-03-18T17:07:44.751Z,13.3
2018-03-18T17:09:04.618Z,13.1
2018-03-18T17:10:24.470Z,13.1
2018-03-18T17:11:44.290Z,13
2018-03-18T17:13:09.170Z,12.8
2018-03-18T17:14:36.598Z,12.7
2018-03-18T17:15:56.437Z,12.4
2018-03-18T17:17:23.867Z,12.5
2018-03-18T17:18:43.728Z,12.6
2018-03-18T17:20:06.074Z,12.4
2018-03-18T17:21:25.944Z,12.1
2018-03-18T17:22:48.304Z,11.6
2018-03-18T17:24:08.138Z,11.5
2018-03-18T17:25:28.031Z,11.6
2018-03-18T17:26:50.370Z,11.3
2018-03-18T17:28:10.226Z,11
2018-03-18T17:29:30.037Z,11
2018-03-18T17:30:49.849Z,10.9
2018-03-18T17:32:12.216Z,11.2
2018-03-18T17:33:37.086Z,11.2
2018-03-18T17:34:59.440Z,11.2
2018-03-18T17:36:19.254Z,11.1
2018-03-18T17:37:41.602Z,11
2018-03-18T17:39:04.000Z,10.9
2018-03-18T17:40:23.822Z,10.9
2018-03-18T17:41:48.741Z,11
2018-03-18T17:43:08.583Z,10.7
2018-03-18T17:44:30.927Z,10.7
2018-03-18T17:45:53.302Z,10.5
2018-03-18T17:47:13.137Z,10.4
2018-03-18T17:48:32.989Z,10.7
2018-03-18T17:49:52.839Z,10.7
2018-03-18T17:51:15.235Z,10.9
2018-03-18T17:52:37.640Z,10.9
2018-03-18T17:54:02.567Z,10.6
2018-03-18T17:55:27.484Z,10.5
2018-03-18T17:56:49.833Z,10.5
2018-03-18T17:58:12.168Z,10.4
2018-03-18T17:59:32.007Z,10.4
2018-03-18T18:00:54.356Z,10.4
2018-03-18T18:02:14.169Z,10.5
2018-03-18T18:03:36.560Z,10.9
2018-03-18T18:04:58.916Z,11
2018-03-18T18:06:18.772Z,11.2
2018-03-18T18:07:38.649Z,11.5
2018-03-18T18:09:06.061Z,11.5
2018-03-18T18:10:25.915Z,11.7
2018-03-18T18:11:45.720Z,11.4
2018-03-18T18:13:05.543Z,11.3
2018-03-18T18:14:25.365Z,11.4
2018-03-18T18:16:02.983Z,11.2
2018-03-18T18:17:22.873Z,11.6
2018-03-18T18:18:45.231Z,12
2018-03-18T18:20:05.048Z,12.4
2018-03-18T18:21:24.860Z,12.5
2018-03-18T18:22:49.783Z,12.5
2018-03-18T18:24:09.593Z,12.7
2018-03-18T18:25:29.406Z,12.6
2018-03-18T18:26:59.334Z,12.5
2018-03-18T18:28:19.136Z,12.6
2018-03-18T18:29:46.567Z,13.2
2018-03-18T18:31:06.396Z,13.4
2018-03-18T18:32:26.254Z,13.2
2018-03-18T18:33:51.114Z,13.1
2018-03-18T18:35:10.950Z,13.2
2018-03-18T18:36:33.327Z,13.3
2018-03-18T18:37:55.675Z,13.2
2018-03-18T18:39:15.485Z,13.2
2018-03-18T18:40:35.298Z,13.2
2018-03-18T18:41:57.715Z,13.2